Time;durP1;ratioP1;P1;durP2;ratioP2;P2;SDS_P1;SDS_P2;PMS_P1;PMS_P2;Temp;Humidity;BMP_temperature;BMP_pressure;BME280_temperature;BME280_humidity;BME280_pressure;Samples;Min_cycle;Max_cycle;Signal;HPM_P1;HPM_P2
2022/12/31 00:03:42;;;;;;;22.53;10.60;;;5.00;1.00;;;;;;10045748;29;20215;-86
2022/12/31 00:09:06;;;;;;;17.30;10.20;;;5.10;1.00;;;;;;10046584;29;20492;-83
2022/12/31 00:14:27;;;;;;;17.97;10.13;;;5.10;1.00;;;;;;10033098;29;20239;-85
2022/12/31 00:19:49;;;;;;;20.83;10.67;;;5.10;1.00;;;;;;10058382;29;20544;-85
2022/12/31 00:25:10;;;;;;;22.03;10.40;;;5.20;1.00;;;;;;10046088;29;20208;-84
2022/12/31 00:30:31;;;;;;;18.33;10.00;;;5.20;1.00;;;;;;10045561;29;20201;-79
2022/12/31 00:35:52;;;;;;;17.63;8.07;;;5.20;1.00;;;;;;10044483;29;20259;-83
2022/12/31 00:41:14;;;;;;;16.33;8.47;;;5.20;1.00;;;;;;10045197;29;20549;-81
2022/12/31 00:46:35;;;;;;;17.80;8.87;;;5.30;1.00;;;;;;10030995;29;20221;-79
2022/12/31 00:51:55;;;;;;;19.80;9.00;;;5.30;1.00;;;;;;10030900;29;20266;-81
2022/12/31 00:57:16;;;;;;;14.30;7.53;;;5.40;1.00;;;;;;10043968;29;20513;-81
2022/12/31 01:02:37;;;;;;;19.63;8.90;;;5.40;1.00;;;;;;10043256;29;20213;-83
2022/12/31 01:07:58;;;;;;;13.83;7.23;;;5.50;1.00;;;;;;10043250;29;20210;-82
2022/12/31 01:13:20;;;;;;;15.53;7.47;;;5.60;1.00;;;;;;10043266;29;20233;-84
2022/12/31 01:18:41;;;;;;;17.13;7.67;;;5.70;1.00;;;;;;10043203;29;20209;-77
2022/12/31 01:24:03;;;;;;;14.27;7.30;;;5.70;1.00;;;;;;10043253;29;20213;-83
2022/12/31 01:29:25;;;;;;;13.03;7.03;;;5.80;1.00;;;;;;10029625;29;20209;-82
2022/12/31 01:34:46;;;;;;;14.43;7.40;;;5.80;1.00;;;;;;10044085;29;20428;-76
2022/12/31 01:40:08;;;;;;;14.93;8.27;;;5.80;1.00;;;;;;10041870;29;20241;-78
2022/12/31 01:45:29;;;;;;;16.57;7.93;;;5.80;1.00;;;;;;10043945;29;20213;-77
2022/12/31 01:50:52;;;;;;;13.97;7.43;;;5.90;1.00;;;;;;10042037;29;20280;-76
2022/12/31 01:56:13;;;;;;;16.53;8.07;;;6.00;1.00;;;;;;10042946;29;20272;-84
2022/12/31 02:01:36;;;;;;;15.43;8.40;;;6.00;1.00;;;;;;10055138;29;20518;-85
2022/12/31 02:07:03;;;;;;;14.30;8.20;;;6.10;1.00;;;;;;10029146;29;20237;-77
2022/12/31 02:12:24;;;;;;;18.63;8.23;;;6.00;1.00;;;;;;10028322;29;20242;-78
2022/12/31 02:17:58;;;;;;;10.67;6.93;;;6.00;1.00;;;;;;10042124;29;20198;-76
2022/12/31 02:23:47;;;;;;;14.33;7.23;;;6.00;1.00;;;;;;10056532;29;20569;-83
2022/12/31 02:29:46;;;;;;;16.60;7.77;;;6.10;1.00;;;;;;10040573;29;20220;-77
2022/12/31 02:35:13;;;;;;;13.00;7.03;;;6.10;1.00;;;;;;10027431;29;20256;-79
2022/12/31 02:40:37;;;;;;;18.33;8.17;;;6.00;1.00;;;;;;10043123;29;20242;-85
2022/12/31 02:46:13;;;;;;;13.80;7.73;;;6.00;1.00;;;;;;10028245;29;20398;-84
2022/12/31 02:51:56;;;;;;;12.83;6.90;;;6.00;1.00;;;;;;10040974;29;20213;-85
2022/12/31 02:57:52;;;;;;;13.17;6.97;;;6.00;1.00;;;;;;10041037;29;20507;-85
2022/12/31 03:03:13;;;;;;;11.70;7.53;;;6.00;1.00;;;;;;10040988;29;20215;-86
2022/12/31 03:09:11;;;;;;;11.43;7.27;;;5.90;48.50;;;;;;10042404;29;20228;-84
2022/12/31 03:14:15;;;;;;;17.67;8.00;;;5.80;99.90;;;;;;10041812;29;20231;-85
2022/12/31 03:25:33;;;;;;;15.03;7.80;;;5.60;99.90;;;;;;10040849;29;20209;-85
2022/12/31 03:30:58;;;;;;;13.67;8.47;;;5.50;99.90;;;;;;10053323;29;20205;-84
2022/12/31 03:36:19;;;;;;;16.47;8.00;;;5.60;99.90;;;;;;10034797;29;20209;-85
2022/12/31 03:41:39;;;;;;;14.13;8.10;;;5.50;99.90;;;;;;10043371;29;20430;-86
2022/12/31 03:47:01;;;;;;;13.07;7.97;;;5.50;99.90;;;;;;10046895;29;20203;-85
2022/12/31 03:52:22;;;;;;;13.60;8.20;;;5.50;99.90;;;;;;10047432;29;20237;-85
2022/12/31 03:57:43;;;;;;;13.80;9.17;;;5.60;99.90;;;;;;10046983;29;20250;-76
2022/12/31 04:03:04;;;;;;;15.43;8.30;;;5.60;99.90;;;;;;10045737;29;20213;-81
2022/12/31 04:08:25;;;;;;;11.43;8.97;;;5.60;99.90;;;;;;10045464;29;20207;-77
2022/12/31 04:13:46;;;;;;;12.53;8.77;;;5.60;99.90;;;;;;10045575;29;20232;-77
2022/12/31 04:19:08;;;;;;;14.80;8.53;;;5.70;99.90;;;;;;10060655;29;20287;-85
2022/12/31 04:24:29;;;;;;;14.20;9.07;;;5.70;99.90;;;;;;10046063;29;20215;-76
2022/12/31 04:29:50;;;;;;;13.13;8.43;;;5.70;99.90;;;;;;10060345;29;20206;-80
2022/12/31 04:35:12;;;;;;;10.90;7.30;;;5.80;99.90;;;;;;10035163;29;20257;-80
2022/12/31 04:40:33;;;;;;;13.83;8.30;;;5.80;99.90;;;;;;10045475;29;20229;-78
2022/12/31 04:45:53;;;;;;;11.43;8.03;;;5.90;99.90;;;;;;10045353;29;20197;-81
2022/12/31 04:51:15;;;;;;;10.50;8.07;;;6.00;99.90;;;;;;10043759;29;20210;-77
2022/12/31 04:56:36;;;;;;;12.13;8.60;;;6.00;99.90;;;;;;10056854;29;20205;-78
2022/12/31 05:01:57;;;;;;;11.93;7.00;;;6.10;99.90;;;;;;10043857;29;20210;-76
2022/12/31 05:07:18;;;;;;;12.57;7.40;;;6.10;99.90;;;;;;10030463;29;20281;-79
2022/12/31 05:12:39;;;;;;;9.90;6.97;;;6.10;99.90;;;;;;10059169;29;20263;-85
2022/12/31 05:18:02;;;;;;;10.17;7.07;;;6.20;99.90;;;;;;10043886;29;20202;-85
2022/12/31 05:23:23;;;;;;;13.57;8.87;;;6.20;99.90;;;;;;10045774;29;20284;-85
2022/12/31 05:28:45;;;;;;;8.57;7.00;;;6.30;99.90;;;;;;10044009;29;20202;-85
2022/12/31 05:34:05;;;;;;;8.53;7.00;;;6.40;99.90;;;;;;10057677;29;20243;-85
2022/12/31 05:39:27;;;;;;;12.83;6.87;;;6.40;99.90;;;;;;10042681;29;20199;-77
2022/12/31 05:44:48;;;;;;;10.00;6.63;;;6.40;99.90;;;;;;10042370;29;20220;-78
2022/12/31 05:50:12;;;;;;;11.47;7.50;;;6.50;99.90;;;;;;10043160;29;20201;-81
2022/12/31 05:55:33;;;;;;;16.60;9.90;;;6.50;99.90;;;;;;10043055;29;20229;-85
2022/12/31 06:00:54;;;;;;;18.57;13.33;;;6.50;99.90;;;;;;10055307;29;20202;-85
2022/12/31 06:06:15;;;;;;;19.63;13.30;;;6.60;99.90;;;;;;10041759;29;20201;-77
2022/12/31 06:11:36;;;;;;;8.53;6.83;;;6.60;99.90;;;;;;10041499;29;20209;-82
2022/12/31 06:16:58;;;;;;;12.63;8.97;;;6.60;99.90;;;;;;10041087;29;20539;-80
2022/12/31 06:22:19;;;;;;;10.30;7.53;;;6.70;99.90;;;;;;10042306;29;20211;-81
2022/12/31 06:27:40;;;;;;;12.10;7.93;;;6.70;99.90;;;;;;10041840;29;20567;-86
2022/12/31 06:33:01;;;;;;;16.93;8.63;;;6.70;99.90;;;;;;10041975;29;20273;-85
2022/12/31 06:38:23;;;;;;;12.43;8.00;;;6.70;99.90;;;;;;10041248;29;20399;-85
2022/12/31 06:43:45;;;;;;;22.80;13.00;;;6.80;99.90;;;;;;10041962;29;20594;-78
2022/12/31 06:49:06;;;;;;;17.00;12.17;;;6.90;99.90;;;;;;10043226;29;20421;-78
2022/12/31 06:54:27;;;;;;;10.63;6.97;;;7.00;99.90;;;;;;10042526;29;20293;-76
2022/12/31 06:59:48;;;;;;;12.80;10.53;;;7.00;99.90;;;;;;10042118;29;20197;-79
2022/12/31 07:05:13;;;;;;;8.63;5.50;;;7.10;99.90;;;;;;10040434;29;20226;-77
2022/12/31 07:10:58;;;;;;;7.40;4.53;;;7.10;99.90;;;;;;10038204;29;20209;-85
2022/12/31 07:16:41;;;;;;;9.53;6.43;;;7.10;99.90;;;;;;10047728;29;20234;-86
2022/12/31 07:22:03;;;;;;;8.30;5.47;;;7.30;99.90;;;;;;10049206;29;20201;-84
2022/12/31 07:27:42;;;;;;;7.00;5.13;;;7.30;99.90;;;;;;10063101;29;20262;-80
2022/12/31 07:33:03;;;;;;;14.93;7.23;;;7.30;99.90;;;;;;10047608;29;20571;-77
2022/12/31 07:38:30;;;;;;;6.30;3.80;;;7.40;99.90;;;;;;10059927;29;20257;-86
2022/12/31 07:43:58;;;;;;;9.10;5.90;;;7.50;99.90;;;;;;10047686;29;20470;-77
2022/12/31 07:49:20;;;;;;;12.57;7.33;;;7.50;99.90;;;;;;10046250;29;20574;-77
2022/12/31 07:54:41;;;;;;;18.63;8.00;;;7.50;99.90;;;;;;10033548;29;20233;-83
2022/12/31 08:00:08;;;;;;;23.40;11.20;;;7.60;99.90;;;;;;10045825;29;20239;-78
2022/12/31 08:06:06;;;;;;;19.03;11.43;;;7.60;99.90;;;;;;10033072;29;20215;-78
2022/12/31 08:11:47;;;;;;;16.63;11.03;;;7.60;99.90;;;;;;10007996;29;20497;-79
2022/12/31 08:17:11;;;;;;;13.50;7.70;;;7.50;99.90;;;;;;10008873;29;20381;-79
2022/12/31 08:23:07;;;;;;;17.43;10.20;;;7.50;99.90;;;;;;10008246;29;20207;-86
2022/12/31 08:28:35;;;;;;;24.50;11.53;;;7.50;99.90;;;;;;10042092;29;20204;-81
2022/12/31 08:34:06;;;;;;;13.33;6.80;;;7.50;99.90;;;;;;10060893;29;20270;-76
2022/12/31 08:39:45;;;;;;;27.37;12.87;;;7.60;99.90;;;;;;10065170;29;20213;-84
2022/12/31 08:45:30;;;;;;;15.80;8.37;;;7.60;99.90;;;;;;10080730;29;20279;-83
2022/12/31 08:50:52;;;;;;;10.53;7.73;;;7.60;99.90;;;;;;10080734;29;20225;-85
2022/12/31 08:56:39;;;;;;;9.00;6.20;;;7.60;99.90;;;;;;10067233;29;20563;-78
2022/12/31 09:02:06;;;;;;;17.23;9.83;;;7.70;99.90;;;;;;10057119;29;20217;-78
2022/12/31 09:07:31;;;;;;;10.50;6.33;;;7.70;99.90;;;;;;10030460;29;20394;-77
2022/12/31 09:13:20;;;;;;;11.07;7.10;;;7.70;99.90;;;;;;10056259;29;20295;-76
2022/12/31 09:18:41;;;;;;;18.53;9.87;;;7.80;99.90;;;;;;10043022;29;20214;-83
2022/12/31 09:24:03;;;;;;;17.37;9.77;;;7.80;99.90;;;;;;10029893;29;20206;-81
2022/12/31 09:29:53;;;;;;;17.40;8.53;;;7.80;99.90;;;;;;10042663;29;20203;-78
2022/12/31 09:35:38;;;;;;;13.83;8.23;;;7.80;99.90;;;;;;10042261;29;20237;-77
2022/12/31 09:41:16;;;;;;;36.27;19.47;;;7.80;99.90;;;;;;10043552;29;20247;-85
2022/12/31 09:46:49;;;;;;;11.73;8.10;;;7.80;99.90;;;;;;10029563;29;20383;-84
2022/12/31 09:52:18;;;;;;;17.23;10.93;;;7.90;99.90;;;;;;10043422;29;20202;-86
2022/12/31 09:57:57;;;;;;;16.17;9.30;;;7.80;99.90;;;;;;10055114;29;20213;-83
2022/12/31 10:03:47;;;;;;;14.77;9.27;;;7.90;99.90;;;;;;10041835;29;20198;-77
2022/12/31 10:09:28;;;;;;;14.63;8.40;;;7.80;99.90;;;;;;10041512;29;20202;-77
2022/12/31 10:15:01;;;;;;;10.97;7.93;;;7.90;99.90;;;;;;10041375;29;20244;-86
2022/12/31 10:20:31;;;;;;;10.40;8.17;;;8.00;99.90;;;;;;10054806;29;20377;-79
2022/12/31 10:26:17;;;;;;;13.23;8.37;;;8.00;99.90;;;;;;10040976;29;20212;-77
2022/12/31 10:32:02;;;;;;;16.97;9.20;;;7.90;99.90;;;;;;10027968;29;20505;-77
2022/12/31 10:37:42;;;;;;;13.90;8.83;;;7.90;99.90;;;;;;10040814;29;20213;-77
2022/12/31 10:43:46;;;;;;;22.53;12.60;;;8.00;99.90;;;;;;10040676;29;20242;-77
2022/12/31 10:49:32;;;;;;;26.50;13.73;;;8.10;99.90;;;;;;10116463;29;20213;-81
2022/12/31 10:54:55;;;;;;;24.27;13.87;;;8.00;99.90;;;;;;10119675;29;20256;-84
2022/12/31 11:00:21;;;;;;;17.10;10.97;;;8.10;99.90;;;;;;10120168;29;20257;-83
2022/12/31 11:05:44;;;;;;;13.47;8.60;;;8.20;99.90;;;;;;10122632;29;20213;-84
2022/12/31 11:11:38;;;;;;;13.07;9.90;;;8.20;99.90;;;;;;10101542;29;20258;-81
2022/12/31 11:17:24;;;;;;;23.40;15.40;;;8.30;99.90;;;;;;10084685;29;20287;-83
2022/12/31 11:23:00;;;;;;;33.03;19.60;;;8.20;99.90;;;;;;10081424;29;20590;-83
2022/12/31 11:28:39;;;;;;;25.60;13.77;;;8.20;99.90;;;;;;10022860;29;20210;-81
2022/12/31 11:34:21;;;;;;;29.90;15.53;;;8.30;99.90;;;;;;10027618;29;20238;-78
2022/12/31 11:40:01;;;;;;;18.70;12.47;;;8.30;99.90;;;;;;10033408;29;20203;-78
2022/12/31 11:45:43;;;;;;;29.07;21.00;;;8.40;99.90;;;;;;10046923;29;20517;-85
2022/12/31 11:51:20;;;;;;;28.00;22.80;;;8.30;99.90;;;;;;10047149;29;20388;-85
2022/12/31 11:57:38;;;;;;;15.63;11.40;;;8.30;99.90;;;;;;10047192;29;20232;-86
2022/12/31 12:03:05;;;;;;;17.33;10.63;;;8.30;99.90;;;;;;10045463;29;20207;-86
2022/12/31 12:08:30;;;;;;;25.23;13.13;;;8.40;99.90;;;;;;10032847;29;20270;-85
2022/12/31 12:13:51;;;;;;;25.03;14.70;;;8.40;99.90;;;;;;10046421;29;20228;-86
2022/12/31 12:19:17;;;;;;;21.33;13.77;;;8.40;99.90;;;;;;10048274;29;20276;-84
2022/12/31 12:24:38;;;;;;;24.37;14.33;;;8.50;99.90;;;;;;10045273;29;20209;-86
2022/12/31 12:30:29;;;;;;;20.70;13.37;;;8.50;99.90;;;;;;10046154;29;20561;-77
2022/12/31 12:35:51;;;;;;;17.63;11.03;;;8.50;99.90;;;;;;10047536;29;20246;-85
2022/12/31 12:41:25;;;;;;;19.10;12.03;;;8.70;99.90;;;;;;10045618;29;20283;-78
2022/12/31 12:46:50;;;;;;;14.03;9.83;;;8.80;99.90;;;;;;10031461;29;20256;-80
2022/12/31 12:52:36;;;;;;;14.67;8.20;;;8.90;99.90;;;;;;10044040;29;20275;-78
2022/12/31 12:58:00;;;;;;;14.57;8.77;;;9.10;99.90;;;;;;10044111;29;20381;-77
2022/12/31 13:03:45;;;;;;;12.03;7.27;;;9.10;99.90;;;;;;10044094;29;20202;-85
2022/12/31 13:10:01;;;;;;;12.67;9.77;;;9.20;99.90;;;;;;10043618;29;20395;-75
2022/12/31 13:15:40;;;;;;;22.13;11.83;;;9.20;99.90;;;;;;10043821;29;20236;-86
2022/12/31 13:21:26;;;;;;;14.50;7.77;;;9.30;99.90;;;;;;10044341;29;20276;-86
2022/12/31 13:27:27;;;;;;;11.50;7.57;;;9.40;99.90;;;;;;10043249;29;20212;-85
2022/12/31 13:32:54;;;;;;;12.77;8.63;;;9.30;99.90;;;;;;10040205;29;20310;-85
2022/12/31 13:38:37;;;;;;;9.80;6.03;;;9.40;99.90;;;;;;10024714;29;20266;-77
2022/12/31 13:44:07;;;;;;;15.97;9.50;;;9.60;99.90;;;;;;10039661;29;20314;-76
2022/12/31 13:49:56;;;;;;;17.87;9.63;;;9.50;99.90;;;;;;10011831;29;20220;-85
2022/12/31 13:55:22;;;;;;;22.77;9.10;;;9.60;99.90;;;;;;10039521;29;20311;-76
2022/12/31 14:00:48;;;;;;;12.33;8.50;;;9.60;99.90;;;;;;10024366;29;20287;-76
2022/12/31 14:06:32;;;;;;;12.77;8.80;;;9.60;99.90;;;;;;10040270;29;20207;-84
2022/12/31 14:12:02;;;;;;;11.40;8.00;;;9.70;99.90;;;;;;10042391;29;20211;-79
2022/12/31 14:17:37;;;;;;;13.20;8.03;;;9.80;99.90;;;;;;10040826;29;20267;-78
2022/12/31 14:23:28;;;;;;;10.17;8.13;;;9.90;99.90;;;;;;10040692;29;20508;-84
2022/12/31 14:29:09;;;;;;;14.47;9.73;;;9.90;99.90;;;;;;10041207;29;20513;-86
2022/12/31 14:34:56;;;;;;;11.30;7.57;;;9.90;99.90;;;;;;10045327;29;20307;-85
2022/12/31 14:40:38;;;;;;;12.33;7.30;;;9.90;99.90;;;;;;10115890;29;20283;-86
2022/12/31 14:46:32;;;;;;;17.50;9.33;;;10.00;99.90;;;;;;10099612;29;20276;-86
2022/12/31 14:51:54;;;;;;;15.20;8.00;;;10.10;99.90;;;;;;10099779;29;20341;-85
2022/12/31 15:04:48;;;;;;;10.93;8.13;;;10.10;99.90;;;;;;10123359;29;20196;-84
2022/12/31 15:10:22;;;;;;;9.47;6.97;;;10.30;99.90;;;;;;10065608;29;20267;-86
2022/12/31 15:16:02;;;;;;;16.70;14.73;;;10.20;99.90;;;;;;10036747;29;20309;-77
2022/12/31 15:21:30;;;;;;;10.90;6.10;;;10.30;99.90;;;;;;10015470;29;20204;-78
2022/12/31 15:27:00;;;;;;;12.57;9.73;;;10.40;99.90;;;;;;10002542;29;20207;-77
2022/12/31 15:32:39;;;;;;;9.90;6.10;;;10.40;99.90;;;;;;10010568;29;20235;-80
2022/12/31 15:38:36;;;;;;;7.00;6.23;;;10.50;99.90;;;;;;10047455;29;20241;-77
2022/12/31 15:43:57;;;;;;;10.60;6.87;;;10.60;99.90;;;;;;10059437;29;20446;-77
2022/12/31 15:49:22;;;;;;;9.00;6.37;;;10.60;99.90;;;;;;10046540;29;20432;-77
2022/12/31 15:54:46;;;;;;;10.33;8.20;;;10.70;99.90;;;;;;10046115;29;20545;-77
2022/12/31 16:00:53;;;;;;;11.70;8.73;;;10.80;99.90;;;;;;10046128;29;20278;-86
2022/12/31 16:06:15;;;;;;;13.73;8.20;;;10.90;99.90;;;;;;10047230;29;20420;-86
2022/12/31 16:11:40;;;;;;;11.03;6.20;;;10.90;99.90;;;;;;10048140;29;20218;-85
2022/12/31 16:17:02;;;;;;;20.90;9.03;;;11.00;99.90;;;;;;10046431;29;20275;-85
2022/12/31 16:22:34;;;;;;;40.30;13.50;;;11.00;99.90;;;;;;10046337;29;20372;-85
2022/12/31 16:27:56;;;;;;;12.50;6.07;;;11.00;99.90;;;;;;10047319;29;20214;-77
2022/12/31 16:33:18;;;;;;;17.50;10.67;;;11.10;99.90;;;;;;10048544;29;20219;-76
2022/12/31 16:38:39;;;;;;;21.03;15.53;;;11.20;99.90;;;;;;10045852;29;20214;-78
2022/12/31 16:44:00;;;;;;;25.57;16.47;;;11.20;99.90;;;;;;10044778;29;20230;-77
2022/12/31 16:49:23;;;;;;;14.67;7.90;;;11.20;99.90;;;;;;10045539;29;20504;-82
2022/12/31 16:54:46;;;;;;;11.33;5.17;;;11.30;99.90;;;;;;10047146;29;20228;-86
2022/12/31 17:00:15;;;;;;;13.37;7.40;;;11.30;99.90;;;;;;10031317;29;20210;-77
2022/12/31 17:05:52;;;;;;;17.73;8.67;;;11.30;99.90;;;;;;10031099;29;20214;-87
2022/12/31 17:11:52;;;;;;;17.20;12.37;;;11.40;99.90;;;;;;10005506;29;20235;-87
2022/12/31 17:17:22;;;;;;;10.47;5.53;;;11.40;99.90;;;;;;10038364;29;20308;-78
2022/12/31 17:22:43;;;;;;;13.50;6.20;;;11.40;99.90;;;;;;10040630;29;20202;-77
2022/12/31 17:28:26;;;;;;;11.37;4.70;;;11.20;99.90;;;;;;10040283;29;20236;-77
2022/12/31 17:33:51;;;;;;;16.07;9.10;;;11.10;99.90;;;;;;10056547;29;20272;-78
2022/12/31 17:39:17;;;;;;;7.60;3.53;;;11.20;99.90;;;;;;10078484;29;20512;-86
2022/12/31 17:44:43;;;;;;;10.07;5.73;;;11.20;99.90;;;;;;10062387;29;20248;-77
2022/12/31 17:50:25;;;;;;;6.37;3.57;;;11.30;99.90;;;;;;10075980;29;20400;-74
2022/12/31 17:55:51;;;;;;;10.03;3.73;;;11.20;99.90;;;;;;10042462;29;20255;-77
2022/12/31 18:01:15;;;;;;;11.37;5.63;;;11.10;99.90;;;;;;10041376;29;20422;-87
2022/12/31 18:06:37;;;;;;;11.03;5.03;;;11.00;99.90;;;;;;10054650;29;20427;-80
2022/12/31 18:12:00;;;;;;;10.53;5.60;;;11.00;99.90;;;;;;10042440;29;20197;-78
2022/12/31 18:17:22;;;;;;;16.40;7.50;;;11.00;99.90;;;;;;10042269;29;20236;-81
2022/12/31 18:22:44;;;;;;;11.40;6.70;;;11.00;99.90;;;;;;10054769;29;20414;-81
2022/12/31 18:28:08;;;;;;;9.47;4.67;;;10.90;99.90;;;;;;10056628;29;20504;-84
2022/12/31 18:33:29;;;;;;;12.03;5.47;;;11.00;99.90;;;;;;10027870;29;20226;-77
2022/12/31 18:38:51;;;;;;;12.27;7.07;;;10.90;99.90;;;;;;10041728;29;20214;-85
2022/12/31 18:44:13;;;;;;;7.70;3.03;;;10.90;99.90;;;;;;10040952;29;20455;-76
2022/12/31 18:49:35;;;;;;;4.10;2.60;;;11.10;99.90;;;;;;10040968;29;20213;-78
2022/12/31 18:54:56;;;;;;;7.13;3.80;;;11.20;99.90;;;;;;10042829;29;20253;-85
2022/12/31 19:00:17;;;;;;;6.67;4.93;;;11.20;99.90;;;;;;10042556;29;20209;-80
2022/12/31 19:05:39;;;;;;;6.57;4.03;;;11.30;99.90;;;;;;10040918;29;20206;-80
2022/12/31 19:11:00;;;;;;;12.87;5.40;;;11.30;99.90;;;;;;10043313;29;20201;-81
2022/12/31 19:16:21;;;;;;;20.27;8.87;;;11.20;99.90;;;;;;10047887;29;20236;-80
2022/12/31 19:21:43;;;;;;;8.00;4.27;;;11.10;99.90;;;;;;10048466;29;20198;-85
2022/12/31 19:27:04;;;;;;;9.17;3.87;;;11.30;99.90;;;;;;10048519;29;20255;-82
2022/12/31 19:32:25;;;;;;;5.70;3.07;;;11.20;99.90;;;;;;10048323;29;20220;-85
2022/12/31 19:37:48;;;;;;;9.17;3.90;;;11.20;99.90;;;;;;10048295;29;20227;-84
2022/12/31 19:43:14;;;;;;;6.00;4.40;;;11.20;99.90;;;;;;10047381;29;20249;-85
2022/12/31 19:48:35;;;;;;;8.53;6.80;;;11.20;99.90;;;;;;10035132;29;20209;-81
2022/12/31 19:53:56;;;;;;;8.43;5.83;;;11.20;99.90;;;;;;10047516;29;20243;-85
2022/12/31 19:59:17;;;;;;;3.90;2.27;;;11.10;99.90;;;;;;10046690;29;20213;-80
2022/12/31 20:04:38;;;;;;;9.80;7.23;;;11.10;99.90;;;;;;10046485;29;20530;-86
2022/12/31 20:10:00;;;;;;;7.70;4.50;;;11.00;99.90;;;;;;10047368;29;20205;-83
2022/12/31 20:15:21;;;;;;;6.37;3.60;;;11.10;99.90;;;;;;10046259;29;20300;-82
2022/12/31 20:20:46;;;;;;;10.37;7.23;;;11.00;99.90;;;;;;10060608;29;20206;-84
2022/12/31 20:26:11;;;;;;;12.53;10.20;;;11.00;99.90;;;;;;10045959;29;20203;-83
2022/12/31 20:31:32;;;;;;;12.20;8.83;;;10.90;99.90;;;;;;10045622;29;20196;-85
2022/12/31 20:36:53;;;;;;;5.10;3.10;;;10.90;99.90;;;;;;10043794;29;20237;-78
2022/12/31 20:42:14;;;;;;;5.77;3.63;;;10.90;99.90;;;;;;10031633;29;20241;-78
2022/12/31 20:47:36;;;;;;;5.30;3.47;;;11.00;99.90;;;;;;10057906;29;20272;-80
2022/12/31 20:52:57;;;;;;;4.03;2.20;;;11.20;99.90;;;;;;10031214;29;20407;-77
2022/12/31 20:58:19;;;;;;;8.07;4.70;;;11.30;99.90;;;;;;10043823;29;20237;-79
2022/12/31 21:03:42;;;;;;;3.13;2.10;;;11.40;99.90;;;;;;10032145;29;20205;-78
2022/12/31 21:09:23;;;;;;;3.50;1.37;;;11.50;99.90;;;;;;10033834;29;20206;-78
2022/12/31 21:14:44;;;;;;;2.10;1.57;;;11.50;99.90;;;;;;10044050;29;20301;-85
2022/12/31 21:20:06;;;;;;;2.50;2.30;;;11.50;99.90;;;;;;10046097;29;20239;-85
2022/12/31 21:25:28;;;;;;;2.37;1.20;;;11.60;99.90;;;;;;10046187;29;20209;-80
2022/12/31 21:30:49;;;;;;;1.57;1.10;;;11.60;99.90;;;;;;10043108;29;20209;-85
2022/12/31 21:36:10;;;;;;;2.33;1.20;;;11.70;99.90;;;;;;10055791;29;20261;-86
2022/12/31 21:41:49;;;;;;;2.07;1.27;;;11.70;99.90;;;;;;10044202;29;20422;-86
2022/12/31 21:53:07;;;;;;;8.80;6.40;;;11.60;99.90;;;;;;10078192;29;20232;-82
2022/12/31 21:58:28;;;;;;;12.23;6.83;;;11.60;99.90;;;;;;10077874;29;20255;-82
2022/12/31 22:03:49;;;;;;;5.03;1.97;;;11.50;99.90;;;;;;10077521;29;20208;-85
2022/12/31 22:09:10;;;;;;;5.07;3.90;;;11.40;99.90;;;;;;10037064;29;20297;-77
2022/12/31 22:14:33;;;;;;;16.90;12.40;;;11.40;99.90;;;;;;10039570;29;20247;-77
2022/12/31 22:19:54;;;;;;;4.23;3.10;;;11.30;99.90;;;;;;10038936;29;20229;-81
2022/12/31 22:25:37;;;;;;;11.70;4.00;;;11.30;99.90;;;;;;10031875;29;20321;-86
2022/12/31 22:30:59;;;;;;;8.83;3.83;;;11.30;99.90;;;;;;10006128;29;20256;-77
2022/12/31 22:36:22;;;;;;;3.70;2.07;;;11.30;99.90;;;;;;10051892;29;20233;-77
2022/12/31 22:41:45;;;;;;;3.30;2.40;;;11.20;99.90;;;;;;10042057;29;20234;-85
2022/12/31 22:47:06;;;;;;;8.03;3.83;;;11.10;99.90;;;;;;10045463;29;20284;-86
2022/12/31 22:52:27;;;;;;;3.90;2.77;;;11.10;99.90;;;;;;10049738;29;20225;-85
2022/12/31 22:57:48;;;;;;;5.03;3.40;;;11.10;99.90;;;;;;10051372;29;20226;-86
2022/12/31 23:03:10;;;;;;;35.07;26.37;;;11.10;99.90;;;;;;10036236;29;20208;-86
2022/12/31 23:08:31;;;;;;;55.03;39.43;;;11.20;99.90;;;;;;10049716;29;20211;-86
2022/12/31 23:25:12;;;;;;;8.80;6.73;;;11.30;99.90;;;;;;10047579;29;20220;-77
2022/12/31 23:30:35;;;;;;;8.47;5.63;;;11.40;99.90;;;;;;10048229;29;20205;-79
2022/12/31 23:36:04;;;;;;;9.47;6.10;;;11.60;99.90;;;;;;10061951;29;20305;-77
2022/12/31 23:41:26;;;;;;;6.53;4.90;;;11.60;99.90;;;;;;10046984;29;20244;-84
2022/12/31 23:46:47;;;;;;;10.77;6.87;;;11.60;99.90;;;;;;10047644;29;20201;-85
2022/12/31 23:52:08;;;;;;;11.73;6.63;;;11.60;99.90;;;;;;10047328;29;20202;-85
2022/12/31 23:57:29;;;;;;;9.70;5.60;;;11.70;99.90;;;;;;10045309;29;20283;-86
